Charlevoix, Michigan
Current Conditions -  °F | °C
As of 2:14 PM on Monday 22 Dec 2014 (Local Time) from KCVX Reporting Station
Clear Clear  
Wind Chill: 29°   Ceiling: Unl
Heat Index: 37°   Visibility: 10mi
Dew Point: 26°   Wind: 12mph
Humidity: 64%   Direction: 120°ESE
Pressure: 29.95"   Gusts: NA
Location:  45.32°N, 85.26°W
Report Text: KCVX 221914Z AUTO 12010KT 10SM CLR 03/M03 A2995 RMK AO2 T00271035
Loading
Personal Weather Stations






























Interactive Weather Map New forecast layout! Learn more

10-Day Weather Forecast

Advertisements
Track Severe Weather on mobile